createdAt,value
2022-11-12T00:01:43.573Z,96216.69
2022-11-12T00:04:28.933Z,96213.09
2022-11-12T00:07:14.108Z,96216.78
2022-11-12T00:09:59.528Z,96216.41
2022-11-12T00:12:45.262Z,96231.91
2022-11-12T00:15:30.617Z,96232.13
2022-11-12T00:18:16.210Z,96224.34
2022-11-12T00:21:01.534Z,96224.66
2022-11-12T00:23:46.633Z,96221.47
2022-11-12T00:26:31.969Z,96185.56
2022-11-12T00:29:17.255Z,96182.41
2022-11-12T00:32:02.930Z,96184.63
2022-11-12T00:34:47.923Z,96180.81
2022-11-12T00:37:33.478Z,96198.41
2022-11-12T00:40:18.805Z,96189.59
2022-11-12T00:43:04.216Z,96209.13
2022-11-12T00:45:49.464Z,96204.84
2022-11-12T00:48:34.909Z,96210.63
2022-11-12T00:51:20.348Z,96201.09
2022-11-12T00:54:06.155Z,96207.06
2022-11-12T00:56:51.566Z,96193.72
2022-11-12T00:59:36.750Z,96187.00
2022-11-12T01:02:22.308Z,96185.06
2022-11-12T01:05:07.934Z,96194.13
2022-11-12T01:07:56.049Z,96178.97
2022-11-12T01:10:42.073Z,96165.00
2022-11-12T01:13:27.446Z,96151.81
2022-11-12T01:16:19.943Z,96152.84
2022-11-12T01:19:08.149Z,96162.63
2022-11-12T01:21:54.099Z,96150.25
2022-11-12T01:24:40.649Z,96159.28
2022-11-12T01:27:26.055Z,96174.41
2022-11-12T01:30:12.008Z,96183.53
2022-11-12T01:32:57.189Z,96165.31
2022-11-12T01:35:42.632Z,96175.03
2022-11-12T01:38:28.465Z,96169.56
2022-11-12T01:41:17.255Z,96161.31
2022-11-12T01:44:29.760Z,96153.19
2022-11-12T01:47:23.533Z,96165.19
2022-11-12T01:50:33.955Z,96159.69
2022-11-12T01:53:21.269Z,96167.00
2022-11-12T01:56:07.803Z,96157.56
2022-11-12T01:59:00.762Z,96160.03
2022-11-12T02:01:46.114Z,96131.53
2022-11-12T02:04:33.623Z,96126.41
2022-11-12T02:07:21.673Z,96137.97
2022-11-12T02:10:09.465Z,96139.03
2022-11-12T02:13:14.601Z,96140.47
2022-11-12T02:16:00.119Z,96114.75
2022-11-12T02:18:45.264Z,96108.06
2022-11-12T02:21:31.246Z,96083.94
2022-11-12T02:24:16.724Z,96120.09
2022-11-12T02:27:02.359Z,96133.16
2022-11-12T02:29:47.765Z,96116.66
2022-11-12T02:32:33.080Z,96104.81
2022-11-12T02:35:18.408Z,96124.84
2022-11-12T02:38:04.187Z,96121.69
2022-11-12T02:40:49.537Z,96121.38
2022-11-12T02:43:35.002Z,96123.03
2022-11-12T02:46:20.462Z,96124.00
2022-11-12T02:49:05.601Z,96113.22
2022-11-12T02:51:50.962Z,96109.66
2022-11-12T02:54:36.293Z,96112.66
2022-11-12T02:57:21.801Z,96095.75
2022-11-12T03:00:11.504Z,96115.91
2022-11-12T03:02:59.508Z,96118.34
2022-11-12T03:05:46.569Z,96118.97
2022-11-12T03:08:31.843Z,96111.66
2022-11-12T03:11:18.028Z,96132.28
2022-11-12T03:14:03.571Z,96142.31
2022-11-12T03:16:49.017Z,96147.63
2022-11-12T03:19:34.495Z,96137.50
2022-11-12T03:22:19.803Z,96149.72
2022-11-12T03:25:07.002Z,96151.31
2022-11-12T03:27:59.219Z,96151.13
2022-11-12T03:30:45.430Z,96134.88
2022-11-12T03:33:30.655Z,96130.88
2022-11-12T03:36:16.270Z,96141.06
2022-11-12T03:39:02.217Z,96153.94
2022-11-12T03:41:47.783Z,96144.56
2022-11-12T03:44:33.513Z,96164.31
2022-11-12T03:47:18.421Z,96167.72
2022-11-12T03:50:03.949Z,96174.09
2022-11-12T03:52:52.033Z,96177.72
2022-11-12T03:55:37.484Z,96178.66
2022-11-12T03:58:22.804Z,96171.22
2022-11-12T04:01:07.993Z,96158.50
2022-11-12T04:03:53.327Z,96158.09
2022-11-12T04:06:57.270Z,96162.03
2022-11-12T04:09:42.417Z,96158.94
2022-11-12T04:12:46.271Z,96183.00
2022-11-12T04:15:31.763Z,96172.44
2022-11-12T04:18:35.405Z,96141.09
2022-11-12T04:21:50.513Z,96150.13
2022-11-12T04:24:59.252Z,96156.25
2022-11-12T04:27:44.660Z,96158.13
2022-11-12T04:30:29.827Z,96151.19
2022-11-12T04:33:15.265Z,96139.81
2022-11-12T04:36:00.505Z,96151.63
2022-11-12T04:38:46.045Z,96149.72
2022-11-12T04:41:51.603Z,96137.78
2022-11-12T04:44:55.476Z,96127.88
2022-11-12T04:47:45.374Z,96141.19
2022-11-12T04:50:30.419Z,96159.53
2022-11-12T04:53:15.912Z,96155.69
2022-11-12T04:56:01.182Z,96161.16
2022-11-12T04:58:46.765Z,96160.94
2022-11-12T05:01:31.981Z,96167.00
2022-11-12T05:04:17.934Z,96161.19
2022-11-12T05:07:03.436Z,96145.13
2022-11-12T05:09:48.828Z,96144.56
2022-11-12T05:12:34.119Z,96155.25
2022-11-12T05:15:19.614Z,96165.19
2022-11-12T05:18:04.615Z,96159.28
2022-11-12T05:20:52.770Z,96171.00
2022-11-12T05:23:37.797Z,96172.81
2022-11-12T05:26:23.034Z,96168.91
2022-11-12T05:29:09.045Z,96162.19
2022-11-12T05:31:55.466Z,96165.16
2022-11-12T05:34:41.187Z,96178.28
2022-11-12T05:37:26.708Z,96182.53
2022-11-12T05:40:13.220Z,96180.34
2022-11-12T05:42:58.440Z,96181.38
2022-11-12T05:45:44.534Z,96187.53
2022-11-12T05:48:30.227Z,96201.25
2022-11-12T05:51:15.689Z,96190.88
2022-11-12T05:54:01.846Z,96192.91
2022-11-12T05:56:47.439Z,96192.53
2022-11-12T05:59:32.884Z,96204.31
2022-11-12T06:02:18.368Z,96213.25
2022-11-12T06:05:03.965Z,96208.69
2022-11-12T06:07:49.390Z,96210.78
2022-11-12T06:10:35.376Z,96220.88
2022-11-12T06:13:23.012Z,96225.47
2022-11-12T06:16:08.942Z,96230.03
2022-11-12T06:18:54.014Z,96228.84
2022-11-12T06:21:39.375Z,96206.00
2022-11-12T06:24:26.109Z,96222.00
2022-11-12T06:27:13.629Z,96230.66
2022-11-12T06:29:59.815Z,96220.16
2022-11-12T06:32:51.412Z,96226.69
2022-11-12T06:35:41.700Z,96224.50
2022-11-12T06:38:30.472Z,96218.41
2022-11-12T06:41:16.081Z,96220.38
2022-11-12T06:44:01.111Z,96228.94
2022-11-12T06:46:46.604Z,96224.25
2022-11-12T06:49:32.279Z,96216.50
2022-11-12T06:52:17.646Z,96228.06
2022-11-12T06:55:03.321Z,96223.50
2022-11-12T06:57:52.718Z,96209.56
2022-11-12T07:00:37.910Z,96225.22
2022-11-12T07:03:23.110Z,96220.94
2022-11-12T07:06:12.093Z,96219.03
2022-11-12T07:08:57.912Z,96227.31
2022-11-12T07:11:44.103Z,96231.94
2022-11-12T07:14:30.193Z,96233.88
2022-11-12T07:17:15.489Z,96229.22
2022-11-12T07:20:03.909Z,96240.25
2022-11-12T07:22:49.790Z,96243.97
2022-11-12T07:25:34.933Z,96242.00
2022-11-12T07:28:20.225Z,96241.91
2022-11-12T07:31:29.274Z,96244.59
2022-11-12T07:34:15.276Z,96240.88
2022-11-12T07:37:00.658Z,96232.25
2022-11-12T07:39:46.104Z,96242.31
2022-11-12T07:42:35.339Z,96254.53
2022-11-12T07:45:20.232Z,96253.97
2022-11-12T07:48:06.089Z,96252.50
2022-11-12T07:50:51.560Z,96260.84
2022-11-12T07:53:37.738Z,96262.09
2022-11-12T07:56:25.740Z,96253.41
2022-11-12T07:59:11.577Z,96264.44
2022-11-12T08:01:56.881Z,96264.00
2022-11-12T08:04:42.668Z,96265.75
2022-11-12T08:07:28.567Z,96264.03
2022-11-12T08:10:14.618Z,96256.66
2022-11-12T08:13:00.798Z,96255.69
2022-11-12T08:15:51.063Z,96261.16
2022-11-12T08:18:37.829Z,96258.31
2022-11-12T08:21:23.517Z,96254.13
2022-11-12T08:24:09.037Z,96254.44
2022-11-12T08:26:54.200Z,96241.34
2022-11-12T08:29:39.796Z,96257.09
2022-11-12T08:32:25.284Z,96261.19
2022-11-12T08:35:10.769Z,96238.94
2022-11-12T08:38:02.322Z,96221.63
2022-11-12T08:40:48.000Z,96231.63
2022-11-12T08:43:33.989Z,96220.63
2022-11-12T08:46:19.419Z,96234.22
2022-11-12T08:49:04.622Z,96231.44
2022-11-12T08:51:50.357Z,96232.47
2022-11-12T08:54:35.757Z,96255.91
2022-11-12T08:57:21.053Z,96238.56
2022-11-12T09:00:07.117Z,96244.88
2022-11-12T09:02:52.382Z,96264.25
2022-11-12T09:05:37.767Z,96258.53
2022-11-12T09:08:25.553Z,96275.53
2022-11-12T09:11:11.685Z,96272.06
2022-11-12T09:13:56.942Z,96251.88
2022-11-12T09:16:42.172Z,96248.09
2022-11-12T09:19:27.627Z,96265.25
2022-11-12T09:22:13.026Z,96281.59
2022-11-12T09:24:59.021Z,96275.84
2022-11-12T09:27:48.478Z,96274.63
2022-11-12T09:30:35.553Z,96272.66
2022-11-12T09:33:29.131Z,96272.56
2022-11-12T09:36:17.649Z,96279.50
2022-11-12T09:39:03.172Z,96272.69
2022-11-12T09:41:48.122Z,96267.56
2022-11-12T09:44:37.700Z,96292.38
2022-11-12T09:47:57.746Z,96276.44
2022-11-12T09:50:54.130Z,96257.63
2022-11-12T09:54:00.933Z,96277.03
2022-11-12T09:56:49.221Z,96257.28
2022-11-12T09:59:39.943Z,96250.13
2022-11-12T10:02:37.642Z,96248.59
2022-11-12T10:05:25.946Z,96243.34
2022-11-12T10:08:30.007Z,96267.50
2022-11-12T10:11:32.210Z,96250.97
2022-11-12T10:14:52.876Z,96239.53
2022-11-12T10:17:44.601Z,96257.09
2022-11-12T10:20:42.701Z,96256.56
2022-11-12T10:23:36.830Z,96246.13
2022-11-12T10:26:25.788Z,96231.91
2022-11-12T10:29:11.450Z,96229.34
2022-11-12T10:31:56.679Z,96225.00
2022-11-12T10:34:42.394Z,96212.31
2022-11-12T10:37:42.642Z,96199.03
2022-11-12T10:40:31.192Z,96200.50
2022-11-12T10:43:17.222Z,96210.56
2022-11-12T10:46:36.440Z,96197.81
2022-11-12T10:49:24.748Z,96194.94
2022-11-12T10:52:24.792Z,96197.09
2022-11-12T10:55:18.111Z,96208.84
2022-11-12T10:58:19.729Z,96190.41
2022-11-12T11:01:15.196Z,96175.06
2022-11-12T11:04:01.550Z,96209.41
2022-11-12T11:06:47.776Z,96213.75
2022-11-12T11:09:34.663Z,96191.59
2022-11-12T11:12:28.458Z,96187.28
2022-11-12T11:15:22.943Z,96203.72
2022-11-12T11:18:12.795Z,96195.22
2022-11-12T11:21:19.767Z,96200.78
2022-11-12T11:24:16.735Z,96185.06
2022-11-12T11:27:20.748Z,96194.56
2022-11-12T11:30:13.081Z,96200.97
2022-11-12T11:33:19.878Z,96193.38
2022-11-12T11:36:44.386Z,96170.59
2022-11-12T11:39:41.089Z,96163.53
2022-11-12T11:42:47.915Z,96143.94
2022-11-12T11:45:33.401Z,96146.09
2022-11-12T11:48:27.018Z,96137.28
2022-11-12T11:51:32.001Z,96137.38
2022-11-12T11:54:23.526Z,96133.97
2022-11-12T11:57:15.636Z,96134.66
2022-11-12T12:00:23.021Z,96126.69
2022-11-12T12:03:21.993Z,96139.41
2022-11-12T12:06:19.764Z,96157.72
2022-11-12T12:09:05.046Z,96143.13
2022-11-12T12:11:50.390Z,96142.13
2022-11-12T12:14:47.932Z,96160.84
2022-11-12T12:18:03.971Z,96165.53
2022-11-12T12:21:09.592Z,96156.94
2022-11-12T12:24:06.122Z,96158.25
2022-11-12T12:26:56.610Z,96151.38
2022-11-12T12:29:50.093Z,96159.50
2022-11-12T12:32:57.077Z,96150.06
2022-11-12T12:36:02.367Z,96124.38
2022-11-12T12:38:56.583Z,96132.41
2022-11-12T12:42:03.807Z,96121.69
2022-11-12T12:45:01.018Z,96131.56
2022-11-12T12:47:48.848Z,96110.75
2022-11-12T12:50:38.346Z,96104.34
2022-11-12T12:53:32.877Z,96109.94
2022-11-12T12:56:24.272Z,96107.44
2022-11-12T12:59:20.378Z,96105.88
2022-11-12T13:02:21.405Z,96111.28
2022-11-12T13:05:21.797Z,96104.28
2022-11-12T13:08:19.019Z,96109.38
2022-11-12T13:11:05.602Z,96078.00
2022-11-12T13:13:51.581Z,96079.00
2022-11-12T13:17:01.482Z,96074.78
2022-11-12T13:19:59.059Z,96070.66
2022-11-12T13:22:44.296Z,96059.25
2022-11-12T13:25:32.756Z,96053.50
2022-11-12T13:28:19.199Z,96063.22
2022-11-12T13:31:23.881Z,96048.75
2022-11-12T13:34:33.265Z,96054.78
2022-11-12T13:37:21.617Z,96045.13
2022-11-12T13:40:14.707Z,96047.66
2022-11-12T13:43:13.337Z,96052.84
2022-11-12T13:46:10.695Z,96038.06
2022-11-12T13:48:58.715Z,96055.63
2022-11-12T13:51:47.099Z,96068.56
2022-11-12T13:54:38.099Z,96057.34
2022-11-12T13:57:26.174Z,96054.66
2022-11-12T14:00:21.946Z,96059.38
2022-11-12T14:03:08.324Z,96070.41
2022-11-12T14:05:54.604Z,96044.28
2022-11-12T14:08:46.035Z,96032.31
2022-11-12T14:11:58.540Z,96039.44
2022-11-12T14:15:02.173Z,96043.59
2022-11-12T14:18:11.248Z,96043.06
2022-11-12T14:20:56.669Z,96047.56
2022-11-12T14:23:47.211Z,96028.19
2022-11-12T14:26:38.874Z,96039.25
2022-11-12T14:29:24.158Z,96034.88
2022-11-12T14:32:09.785Z,96023.50
2022-11-12T14:34:54.730Z,96013.91
2022-11-12T14:37:43.852Z,96013.59
2022-11-12T14:40:33.856Z,96016.22
2022-11-12T14:43:27.597Z,95997.03
2022-11-12T14:46:45.927Z,95996.59
2022-11-12T14:49:43.939Z,96002.75
2022-11-12T14:52:40.742Z,95990.09
2022-11-12T14:55:36.347Z,95992.06
2022-11-12T14:58:23.683Z,95988.84
2022-11-12T15:04:45.485Z,95959.31
2022-11-12T15:07:50.529Z,95967.75
2022-11-12T15:10:44.504Z,95977.09
2022-11-12T15:13:38.720Z,95982.72
2022-11-12T15:16:28.427Z,95987.28
2022-11-12T15:19:23.933Z,95990.66
2022-11-12T15:22:21.095Z,95975.06
2022-11-12T15:25:30.932Z,95976.53
2022-11-12T15:28:24.878Z,95978.94
2022-11-12T15:31:21.898Z,95961.31
2022-11-12T15:34:26.096Z,95961.19
2022-11-12T15:37:18.002Z,95955.75
2022-11-12T15:40:12.793Z,95951.56
2022-11-12T15:42:59.130Z,95953.59
2022-11-12T15:45:49.587Z,95950.31
2022-11-12T15:48:35.650Z,95950.91
2022-11-12T15:51:21.148Z,95954.97
2022-11-12T15:54:06.302Z,95950.66
2022-11-12T15:56:52.073Z,95955.78
2022-11-12T15:59:37.229Z,95963.13
2022-11-12T16:02:23.004Z,95967.13
2022-11-12T16:05:19.825Z,95962.34
2022-11-12T16:08:06.208Z,95947.41
2022-11-12T16:10:51.554Z,95943.38
2022-11-12T16:13:36.976Z,95950.13
2022-11-12T16:16:22.412Z,95951.97
2022-11-12T16:19:18.341Z,95949.59
2022-11-12T16:22:12.276Z,95935.16
2022-11-12T16:24:57.887Z,95949.03
2022-11-12T16:27:43.609Z,95966.56
2022-11-12T16:30:33.557Z,95961.34
2022-11-12T16:33:20.230Z,95955.72
2022-11-12T16:36:15.248Z,95950.28
2022-11-12T16:39:00.641Z,95957.41
2022-11-12T16:41:45.932Z,95951.91
2022-11-12T16:44:31.193Z,95936.69
2022-11-12T16:47:16.553Z,95951.13
2022-11-12T16:50:01.929Z,95936.84
2022-11-12T16:52:48.777Z,95957.59
2022-11-12T16:55:35.030Z,95946.94
2022-11-12T16:58:20.516Z,95942.41
2022-11-12T17:01:06.729Z,95945.72
2022-11-12T17:03:53.703Z,95927.97
2022-11-12T17:06:41.083Z,95944.31
2022-11-12T17:09:26.403Z,95955.16
2022-11-12T17:12:11.969Z,95969.13
2022-11-12T17:14:57.076Z,95958.81
2022-11-12T17:17:42.546Z,95962.09
2022-11-12T17:20:27.723Z,95962.63
2022-11-12T17:23:13.201Z,95962.25
2022-11-12T17:26:04.050Z,95951.47
2022-11-12T17:28:55.552Z,95957.13
2022-11-12T17:31:49.203Z,95959.94
2022-11-12T17:34:35.923Z,95951.88
2022-11-12T17:37:20.923Z,95954.94
2022-11-12T17:40:07.134Z,95965.53
2022-11-12T17:42:53.861Z,95946.22
2022-11-12T17:45:39.065Z,95947.00
2022-11-12T17:48:24.960Z,95945.34
2022-11-12T17:51:12.927Z,95960.41
2022-11-12T17:53:58.106Z,95962.81
2022-11-12T17:56:43.606Z,95947.19
2022-11-12T17:59:29.009Z,95946.63
2022-11-12T18:02:14.537Z,95947.44
2022-11-12T18:04:59.701Z,95938.84
2022-11-12T18:07:45.071Z,95944.19
2022-11-12T18:10:30.253Z,95928.03
2022-11-12T18:13:15.731Z,95923.44
2022-11-12T18:16:01.383Z,95910.06
2022-11-12T18:18:47.546Z,95909.25
2022-11-12T18:21:32.755Z,95916.31
2022-11-12T18:24:18.144Z,95920.06
2022-11-12T18:27:03.783Z,95914.19
2022-11-12T18:29:49.958Z,95913.63
2022-11-12T18:32:36.369Z,95904.59
2022-11-12T18:35:29.510Z,95909.91
2022-11-12T18:38:15.340Z,95905.09
2022-11-12T18:41:08.438Z,95905.81
2022-11-12T18:43:55.198Z,95901.69
2022-11-12T18:46:40.656Z,95900.47
2022-11-12T18:49:26.114Z,95901.06
2022-11-12T18:52:11.439Z,95898.38
2022-11-12T18:54:56.766Z,95897.25
2022-11-12T18:57:42.034Z,95893.78
2022-11-12T19:00:27.466Z,95909.19
2022-11-12T19:03:13.369Z,95887.28
2022-11-12T19:06:00.045Z,95896.16
2022-11-12T19:08:45.208Z,95891.38
2022-11-12T19:11:30.426Z,95883.13
2022-11-12T19:14:15.824Z,95888.84
2022-11-12T19:17:01.332Z,95892.19
2022-11-12T19:19:46.575Z,95886.53
2022-11-12T19:22:31.907Z,95885.53
2022-11-12T19:25:17.329Z,95884.53
2022-11-12T19:28:02.756Z,95878.38
2022-11-12T19:30:48.160Z,95870.50
2022-11-12T19:33:34.488Z,95874.03
2022-11-12T19:36:22.179Z,95869.47
2022-11-12T19:39:08.055Z,95869.28
2022-11-12T19:41:53.612Z,95864.00
2022-11-12T19:44:38.906Z,95856.69
2022-11-12T19:47:24.680Z,95853.75
2022-11-12T19:50:10.202Z,95848.00
2022-11-12T19:52:55.878Z,95853.97
2022-11-12T19:55:41.327Z,95851.75
2022-11-12T19:58:27.755Z,95854.66
2022-11-12T20:01:16.371Z,95855.91
2022-11-12T20:04:01.680Z,95853.19
2022-11-12T20:06:47.115Z,95850.78
2022-11-12T20:09:32.388Z,95847.25
2022-11-12T20:12:17.661Z,95844.72
2022-11-12T20:15:03.074Z,95842.78
2022-11-12T20:17:48.400Z,95841.44
2022-11-12T20:20:33.838Z,95841.47
2022-11-12T20:23:19.374Z,95838.69
2022-11-12T20:26:11.102Z,95850.88
2022-11-12T20:28:56.668Z,95850.47
2022-11-12T20:31:42.129Z,95832.56
2022-11-12T20:34:27.556Z,95829.28
2022-11-12T20:37:12.949Z,95819.13
2022-11-12T20:39:58.295Z,95818.91
2022-11-12T20:42:43.927Z,95823.22
2022-11-12T20:45:29.508Z,95822.53
2022-11-12T20:48:14.889Z,95817.50
2022-11-12T20:51:26.618Z,95819.50
2022-11-12T20:54:12.060Z,95814.97
2022-11-12T20:56:57.301Z,95811.22
2022-11-12T20:59:43.283Z,95804.47
2022-11-12T21:02:28.597Z,95797.38
2022-11-12T21:05:14.118Z,95791.31
2022-11-12T21:07:59.631Z,95781.72
2022-11-12T21:10:49.137Z,95778.75
2022-11-12T21:13:36.599Z,95750.31
2022-11-12T21:16:22.940Z,95761.13
2022-11-12T21:19:08.423Z,95768.28
2022-11-12T21:21:54.549Z,95765.09
2022-11-12T21:24:40.730Z,95767.63
2022-11-12T21:27:25.961Z,95759.91
2022-11-12T21:30:11.977Z,95745.72
2022-11-12T21:32:57.661Z,95751.38
2022-11-12T21:35:43.317Z,95752.94
2022-11-12T21:38:29.753Z,95758.03
2022-11-12T21:41:18.786Z,95750.13
2022-11-12T21:44:04.004Z,95752.66
2022-11-12T21:46:49.447Z,95760.81
2022-11-12T21:49:34.912Z,95766.47
2022-11-12T21:52:20.202Z,95763.63
2022-11-12T21:55:07.150Z,95760.66
2022-11-12T21:57:53.460Z,95757.72
2022-11-12T22:00:42.006Z,95750.00
2022-11-12T22:03:31.075Z,95749.69
2022-11-12T22:06:17.286Z,95735.19
2022-11-12T22:09:02.947Z,95743.50
2022-11-12T22:11:48.299Z,95741.75
2022-11-12T22:14:33.541Z,95731.13
2022-11-12T22:17:18.905Z,95726.38
2022-11-12T22:20:04.540Z,95724.66
2022-11-12T22:22:52.654Z,95720.44
2022-11-12T22:25:38.966Z,95715.50
2022-11-12T22:28:25.231Z,95712.81
2022-11-12T22:31:13.381Z,95716.41
2022-11-12T22:34:00.453Z,95718.94
2022-11-12T22:36:46.144Z,95725.25
2022-11-12T22:39:31.237Z,95719.97
2022-11-12T22:42:16.917Z,95724.66
2022-11-12T22:45:01.928Z,95726.97
2022-11-12T22:47:47.500Z,95728.47
2022-11-12T22:50:32.763Z,95732.78
2022-11-12T22:53:17.941Z,95723.56
2022-11-12T22:56:05.571Z,95714.78
2022-11-12T22:58:51.768Z,95699.28
2022-11-12T23:01:36.920Z,95696.78
2022-11-12T23:04:24.466Z,95703.34
2022-11-12T23:07:09.935Z,95699.50
2022-11-12T23:09:55.544Z,95694.94
2022-11-12T23:12:41.347Z,95685.09
2022-11-12T23:15:31.205Z,95684.28
2022-11-12T23:18:16.513Z,95681.72
2022-11-12T23:21:11.425Z,95683.00
2022-11-12T23:23:58.268Z,95680.31
2022-11-12T23:26:43.491Z,95672.03
2022-11-12T23:29:28.685Z,95681.19
2022-11-12T23:32:13.996Z,95668.59
2022-11-12T23:34:59.306Z,95660.75
2022-11-12T23:37:44.745Z,95657.44
2022-11-12T23:40:31.304Z,95653.31
2022-11-12T23:43:16.875Z,95653.50
2022-11-12T23:46:02.374Z,95639.66
2022-11-12T23:48:48.356Z,95640.00
2022-11-12T23:51:33.737Z,95635.38
2022-11-12T23:54:18.863Z,95631.28
2022-11-12T23:57:04.258Z,95614.31
2022-11-12T23:59:49.632Z,95608.28
